Date,TemperatureHighF,TemperatureAvgF,TemperatureLowF,DewpointHighF,DewpointAvgF,DewpointLowF,HumidityHigh,HumidityAvg,HumidityLow,PressureMaxIn,PressureMinIn,WindSpeedMaxMPH,WindSpeedAvgMPH,GustSpeedMaxMPH,PrecipitationSumIn
2013-4-1,43.9,38.7,28.6,42.4,31.3,18.1,99,77,44,29.90,29.52,27,9,27,0.08
2013-4-2,41.9,32.3,26.4,29.3,21.6,16.0,89,65,44,30.06,29.87,32,11,32,0.00
2013-4-3,43.9,35.2,30.6,25.7,21.1,17.1,71,57,44,30.33,30.03,25,11,25,0.00
2013-4-4,61.7,41.1,25.3,32.4,21.7,15.8,69,49,22,30.32,29.88,15,4,15,0.00
2013-4-5,50.9,41.0,33.1,37.9,29.7,19.0,90,64,52,30.10,29.84,21,0,21,0.00
2013-4-6,76.6,37.7,31.3,26.4,19.7,13.6,70,49,31,30.33,30.05,17,6,17,0.00
2013-4-7,75.6,51.8,39.6,45.5,31.3,18.3,97,49,24,30.05,29.69,27,9,27,0.00
2013-4-8,53.2,43.9,37.4,46.8,40.1,35.6,99,87,62,30.12,29.73,12,4,12,0.01
2013-4-9,56.7,47.1,41.5,51.6,44.4,41.2,99,91,71,30.09,29.72,17,4,17,0.48
2013-4-10,46.2,41.8,39.6,45.5,41.5,39.2,99,99,97,30.09,29.85,13,4,13,0.48
2013-4-11,40.1,36.7,33.6,39.2,33.6,9.5,99,89,68,30.18,29.94,19,9,19,0.26
2013-4-12,49.6,41.2,34.9,49.5,38.8,32.2,99,91,77,29.98,29.53,24,9,24,0.70
2013-4-13,51.4,44.1,39.9,41.7,36.2,31.1,85,74,50,29.92,29.75,17,4,17,0.00
2013-4-14,50.0,41.5,34.3,37.4,33.1,26.6,91,72,56,30.19,29.91,15,4,15,0.04
2013-4-15,77.7,55.5,33.8,50.9,39.3,26.2,78,56,35,30.18,30.02,22,8,22,0.00
2013-4-16,66.0,55.2,41.7,59.0,49.7,39.4,99,83,66,30.21,29.95,23,7,23,0.20
2013-4-17,54.7,45.1,36.7,42.1,38.0,26.6,98,77,51,30.35,30.20,9,3,9,0.00
2013-4-18,79.0,60.5,41.7,59.9,49.7,36.9,99,70,42,30.25,29.73,28,10,28,0.07
2013-4-19,79.0,60.2,43.2,63.3,52.9,34.0,98,77,49,29.76,29.35,27,10,27,0.11
2013-4-20,50.5,41.1,34.3,41.0,31.0,24.1,87,67,54,30.39,29.72,27,10,27,0.02
2013-4-21,48.4,38.5,31.8,29.5,24.7,12.7,77,58,38,30.68,30.20,17,5,17,0.00
2013-4-22,69.3,48.1,29.3,32.5,26.6,19.2,87,50,15,30.60,30.36,17,5,17,0.00
2013-4-23,69.3,53.9,39.9,41.0,33.3,26.1,64,47,25,30.37,29.97,19,7,19,0.00
2013-4-24,73.0,55.0,41.7,56.8,46.4,37.8,99,74,45,29.97,29.58,21,8,21,0.08
2013-4-25,55.2,46.4,38.5,43.9,38.5,33.6,99,75,58,30.28,29.94,21,5,21,0.06
2013-4-26,57.0,46.0,37.2,44.6,39.0,31.8,99,78,51,30.48,30.27,11,3,11,0.01
2013-4-27,65.3,49.0,36.0,47.8,39.4,31.3,90,71,37,30.42,30.21,10,0,10,0.00
2013-4-28,61.9,49.7,44.2,44.2,40.1,37.8,81,70,49,30.22,30.15,10,3,10,0.00
2013-4-29,30.9,30.9,30.9,17.1,17.1,17.1,56,56,56,30.02,29.75,3,3,0,0.00
2013-4-30,80.2,70.0,37.9,57.9,54.7,19.9,76,59,44,30.23,29.97,21,6,21,1.89